Latest Weather Observations for Sydney Olympic Park

IDN60801

Issued at 8:03 pm EST Saturday 4 July 2015 (issued every 30 minutes, with the page automatically refreshed every 10 minutes)

About weather observations | Map of weather stations | Latest weather observations for NSW | Other Formats
Station Details ID: 066212 Name: SYDNEY OLYMPIC PARK AWS (ARCHERY CENTRE) Lat: -33.83 Lon: 151.07 Height: 4.0 m
Data from the previous 72 hours. | See also: Recent months at Sydney Olympic Park
Date/Time
EST
Temp
°C
App
Temp
°C
Dew
Point
Rel
Hum
%
Delta-T
°C
Wind Press
QNH
hPa
Press
MSL
hPa
Rain
since 9 am
mm
Dir
 
Spd
km/h
Gust
km/h
Spd
kts
Gust
kts
04/08:00pm 5.6 4.4 4.4 92 0.5 CALM 0 0 0 0 - - 0.0
04/07:30pm 6.1 5.0 4.9 92 0.5 CALM 0 0 0 0 - - 0.0
04/07:00pm 6.5 5.4 5.0 90 0.7 CALM 0 0 0 0 - - 0.0
04/06:30pm 7.0 5.9 5.2 88 0.8 CALM 0 0 0 0 - - 0.0
04/06:00pm 7.8 6.7 5.3 84 1.1 CALM 0 0 0 0 - - 0.0
04/05:30pm 8.4 5.9 4.0 74 1.9 SE 6 7 3 4 - - 0.0
04/05:00pm 10.8 8.3 4.0 63 3.0 SE 6 7 3 4 - - 0.0
04/04:30pm 12.8 11.7 5.0 59 3.6 CALM 0 0 0 0 - - 0.0
04/04:00pm 15.3 13.0 0.7 37 6.3 WSW 2 6 1 3 - - 0.0
04/03:30pm 15.4 12.3 0.0 35 6.5 WSW 6 9 3 5 - - 0.0
04/03:00pm 15.5 12.4 1.3 38 6.2 SW 7 17 4 9 - - 0.0
04/02:30pm 15.8 12.7 0.4 35 6.6 W 6 9 3 5 - - 0.0
04/02:00pm 15.4 13.5 2.6 42 5.7 WSW 2 7 1 4 - - 0.0
04/01:30pm 14.3 11.5 2.2 44 5.3 SW 6 11 3 6 - - 0.0
04/01:00pm 14.0 10.9 1.6 43 5.4 WSW 7 11 4 6 - - 0.0
04/12:30pm 13.0 10.1 2.8 50 4.5 W 7 13 4 7 - - 0.0
04/12:00pm 13.0 10.3 3.9 54 4.1 WNW 7 13 4 7 - - 0.0
04/11:30am 12.0 9.5 5.0 62 3.2 WNW 7 13 4 7 - - 0.0
04/10:30am 9.1 6.8 4.7 74 2.0 WNW 6 11 3 6 - - 0.0
04/10:00am 7.2 4.7 5.0 86 1.0 NW 7 11 4 6 - - 0.0
04/09:30am 7.0 4.7 5.8 92 0.5 WNW 7 11 4 6 - - 0.0
04/09:00am 6.2 3.9 5.6 96 0.3 WNW 7 11 4 6 - - 0.0
04/08:30am 5.0 3.1 4.9 99 0.0 WNW 4 7 2 4 - - 0.0
04/08:00am 4.9 3.4 4.8 99 0.0 WNW 2 7 1 4 - - 0.0
04/07:30am 2.6 1.0 2.3 98 0.1 CALM 0 0 0 0 - - 0.0
04/07:00am 2.5 0.8 2.1 97 0.2 CALM 0 0 0 0 - - 0.0
04/06:30am 2.9 1.3 2.5 97 0.2 CALM 0 0 0 0 - - 0.0
04/06:00am 3.6 2.2 3.3 98 0.1 CALM 0 0 0 0 - - 0.0
04/05:30am 4.1 1.6 3.8 98 0.1 WNW 6 9 3 5 - - 0.0
04/05:00am 4.0 2.6 3.7 98 0.1 CALM 0 6 0 3 - - 0.0
04/04:30am 4.2 1.7 3.9 98 0.1 WNW 6 9 3 5 - - 0.0
04/04:00am 4.0 2.6 3.6 97 0.2 CALM 0 7 0 4 - - 0.0
04/03:30am 4.3 3.0 3.9 97 0.2 CALM 0 0 0 0 - - 0.0
04/03:00am 4.8 2.4 4.5 98 0.1 NW 6 7 3 4 - - 0.0
04/02:30am 4.9 2.9 4.6 98 0.1 WNW 4 7 2 4 - - 0.0
04/02:00am 4.9 3.7 4.6 98 0.1 CALM 0 0 0 0 - - 0.0
04/01:30am 4.6 3.3 4.3 98 0.1 CALM 0 0 0 0 - - 0.0
04/01:00am 4.8 3.6 4.5 98 0.1 CALM 0 6 0 3 - - 0.0
04/12:30am 4.8 3.2 4.4 97 0.2 WNW 2 7 1 4 - - 0.0
04/12:00am 4.9 3.7 4.5 97 0.2 CALM 0 0 0 0 - - 0.0
 
Date/Time
EST
Temp
°C
App
Temp
°C
Dew
Point
Rel
Hum
%
Delta-T
°C
Wind Press
QNH
hPa
Press
MSL
hPa
Rain
since 9 am
mm
Dir
 
Spd
km/h
Gust
km/h
Spd
kts
Gust
kts
03/11:30pm 5.0 3.8 4.6 97 0.2 CALM 0 0 0 0 - - 0.0
03/11:00pm 5.4 4.3 5.0 97 0.2 CALM 0 0 0 0 - - 0.0
03/10:30pm 5.5 4.4 4.9 96 0.3 CALM 0 0 0 0 - - 0.0
03/10:00pm 5.7 4.6 5.1 96 0.3 CALM 0 0 0 0 - - 0.0
03/09:30pm 5.8 4.7 5.1 95 0.3 CALM 0 0 0 0 - - 0.0
03/09:00pm 6.0 4.9 5.3 95 0.3 CALM 0 0 0 0 - - 0.0
03/08:30pm 6.2 5.1 5.3 94 0.4 CALM 0 0 0 0 - - 0.0
03/08:00pm 6.5 5.5 5.6 94 0.4 CALM 0 0 0 0 - - 0.0
03/07:30pm 6.7 5.7 5.5 92 0.5 CALM 0 0 0 0 - - 0.0
03/07:00pm 7.0 6.0 5.6 91 0.6 CALM 0 0 0 0 - - 0.0
03/06:30pm 7.4 6.4 5.5 88 0.8 CALM 0 0 0 0 - - 0.0
03/06:00pm 8.1 7.0 5.2 82 1.3 CALM 0 2 0 1 - - 0.0
03/05:30pm 9.2 8.2 5.4 77 1.7 CALM 0 0 0 0 - - 0.0
03/05:00pm 10.7 8.4 4.8 67 2.7 SE 6 7 3 4 - - 0.0
03/04:30pm 12.4 9.5 4.9 60 3.4 SE 9 13 5 7 - - 0.0
03/04:00pm 13.3 10.6 5.5 59 3.7 SE 9 15 5 8 - - 0.0
03/03:30pm 13.9 10.7 5.0 55 4.1 SE 11 15 6 8 - - 0.0
03/03:00pm 14.4 11.2 5.2 54 4.3 ESE 11 17 6 9 - - 0.0
03/02:30pm 14.9 11.8 5.4 53 4.5 SE 11 15 6 8 - - 0.0
03/02:00pm 15.1 12.2 4.5 49 4.9 SSE 9 13 5 7 - - 0.0
03/01:30pm 14.9 11.9 4.3 49 4.9 SSE 9 15 5 8 - - 0.0
03/01:00pm 14.6 11.3 4.3 50 4.8 SSE 11 17 6 9 - - 0.0
03/12:30pm 15.2 12.7 4.9 50 4.8 SW 7 19 4 10 - - 0.0
03/12:00pm 14.2 11.3 4.5 52 4.5 WSW 9 15 5 8 - - 0.0
03/11:30am 13.6 11.1 4.7 55 4.1 W 7 13 4 7 - - 0.0
03/11:00am 12.5 9.3 2.9 52 4.2 W 9 17 5 9 - - 0.0
03/10:30am 11.9 8.8 3.4 56 3.8 W 9 13 5 7 - - 0.0
03/10:00am 10.6 6.4 1.9 55 3.7 W 13 19 7 10 - - 0.0
03/09:30am 9.4 5.4 0.8 55 3.5 W 11 17 6 9 - - 0.0
03/09:00am 8.6 5.2 2.0 63 2.7 W 9 17 5 9 - - 0.0
03/08:30am 7.4 3.8 0.4 61 2.8 WNW 9 15 5 8 - - 0.0
03/08:00am 5.3 2.5 2.1 80 1.3 WNW 6 9 3 5 - - 0.0
03/07:30am 3.6 1.7 0.5 80 1.2 CALM 0 0 0 0 - - 0.0
03/07:00am 3.7 0.7 0.6 80 1.2 WNW 6 9 3 5 - - 0.0
03/06:30am 3.7 0.7 0.6 80 1.2 WNW 6 9 3 5 - - 0.0
03/06:00am 3.6 0.6 0.5 80 1.2 WNW 6 9 3 5 - - 0.0
03/05:30am 4.2 1.1 0.4 76 1.4 WNW 6 7 3 4 - - 0.0
03/05:00am 4.9 1.8 0.3 72 1.8 W 6 9 3 5 - - 0.0
03/04:30am 4.5 1.3 0.6 76 1.5 WNW 7 13 4 7 - - 0.0
03/04:00am 4.7 1.2 1.0 77 1.4 WNW 9 13 5 7 - - 0.0
03/03:30am 4.2 0.7 1.4 82 1.1 WNW 9 13 5 7 - - 0.0
03/03:00am 4.3 2.5 1.0 79 1.3 CALM 0 6 0 3 - - 0.0
03/02:30am 5.5 2.9 0.9 72 1.8 W 4 9 2 5 - - 0.0
03/02:00am 5.9 4.2 1.6 74 1.7 CALM 0 6 0 3 - - 0.0
03/01:30am 6.3 4.1 1.2 70 2.0 W 2 9 1 5 - - 0.0
03/01:00am 6.6 4.1 1.3 69 2.1 W 4 7 2 4 - - 0.0
03/12:30am 7.3 4.4 1.6 67 2.3 W 6 7 3 4 - - 0.0
03/12:00am 7.9 5.1 2.0 66 2.4 W 6 9 3 5 - - 0.0
 
Date/Time
EST
Temp
°C
App
Temp
°C
Dew
Point
Rel
Hum
%
Delta-T
°C
Wind Press
QNH
hPa
Press
MSL
hPa
Rain
since 9 am
mm
Dir
 
Spd
km/h
Gust
km/h
Spd
kts
Gust
kts
02/11:30pm 8.7 5.7 1.8 62 2.9 W 7 13 4 7 - - 0.0
02/11:00pm 9.1 6.2 2.7 64 2.7 W 7 13 4 7 - - 0.0
02/10:30pm 9.6 5.9 2.5 61 3.0 SW 11 17 6 9 - - 0.0
02/10:00pm 9.9 5.9 2.7 61 3.1 SW 13 24 7 13 - - 0.0
02/09:30pm 10.3 6.3 2.9 60 3.2 SW 13 20 7 11 - - 0.0
02/09:00pm 10.8 6.8 2.6 57 3.5 WSW 13 26 7 14 - - 0.0
02/08:30pm 10.7 7.4 2.5 57 3.5 WSW 9 17 5 9 - - 0.0
02/08:00pm 10.5 7.8 2.4 57 3.5 SW 6 13 3 7 - - 0.0
02/07:30pm 11.1 8.2 2.4 55 3.7 SW 7 13 4 7 - - 0.0
02/07:00pm 12.1 8.4 2.6 52 4.1 SW 11 20 6 11 - - 0.0
02/06:30pm 12.5 8.5 2.9 52 4.2 W 13 22 7 12 - - 0.0
02/06:00pm 12.9 7.6 3.0 51 4.4 W 20 33 11 18 - - 0.0
02/05:30pm 13.5 7.1 3.3 50 4.6 W 26 48 14 26 - - 0.0
02/05:00pm 13.8 8.9 3.9 51 4.5 W 19 33 10 18 - - 0.0
02/04:30pm 14.4 10.7 4.4 51 4.6 SW 13 20 7 11 - - 0.0
02/04:00pm 14.6 12.1 4.6 51 4.6 WSW 7 13 4 7 - - 0.0
02/03:30pm 15.6 11.9 4.3 47 5.3 WSW 13 22 7 12 - - 0.0
02/03:00pm 16.1 11.8 5.1 48 5.2 W 17 32 9 17 - - 0.0
02/02:30pm 16.3 12.0 5.3 48 5.3 W 17 32 9 17 - - 0.0
02/02:00pm 15.7 10.6 4.1 46 5.4 WSW 20 39 11 21 - - 0.0
02/01:30pm 15.7 10.6 4.1 46 5.4 WSW 20 39 11 21 - - 0.0
02/01:00pm 15.7 11.2 4.1 46 5.4 W 17 37 9 20 - - 0.0
02/12:30pm 14.8 9.3 4.2 49 4.9 WSW 22 39 12 21 - - 0.0
02/12:00pm 14.5 9.0 3.9 49 4.8 W 22 37 12 20 - - 0.0
02/11:30am 14.1 8.2 4.1 51 4.6 W 24 41 13 22 - - 0.0
02/11:00am 13.2 8.0 3.8 53 4.2 W 20 37 11 20 - - 0.0
02/10:30am 12.1 7.4 5.0 62 3.3 WNW 19 30 10 16 - - 0.0
02/10:00am 10.7 7.6 5.7 71 2.3 NW 11 19 6 10 - - 0.0
02/09:30am 9.2 4.4 4.8 74 2.0 NW 19 26 10 14 - - 0.0
02/09:00am 8.2 5.2 5.8 85 1.1 NW 11 17 6 9 - - 0.0
02/08:30am 6.5 2.9 5.1 91 0.6 WNW 13 22 7 12 - - 0.0
02/08:00am 5.2 2.3 4.8 97 0.2 WNW 9 15 5 8 - - 0.0
02/07:30am 3.9 2.1 3.5 97 0.2 WNW 2 9 1 5 - - 0.0
02/07:00am 3.5 2.0 3.1 97 0.2 CALM 0 6 0 3 - - 0.0
02/06:30am 3.7 2.2 3.1 96 0.2 CALM 0 0 0 0 - - 0.0
02/06:00am 4.1 2.3 3.5 96 0.2 W 2 9 1 5 - - 0.0
02/05:30am 3.6 0.8 3.3 98 0.1 WNW 7 15 4 8 - - 0.0
02/05:00am 3.0 1.4 2.7 98 0.1 CALM 0 0 0 0 - - 0.0
02/04:30am 3.0 1.4 2.6 97 0.2 CALM 0 2 0 1 - - 0.0
02/04:00am 3.4 1.9 3.0 97 0.2 CALM 0 0 0 0 - - 0.0
02/03:30am 3.1 1.5 2.5 96 0.2 CALM 0 0 0 0 - - 0.0
02/03:00am 3.8 2.3 3.2 96 0.2 CALM 0 0 0 0 - - 0.0
02/02:30am 4.3 2.9 3.7 96 0.2 CALM 0 0 0 0 - - 0.0
02/02:00am 4.3 2.9 3.7 96 0.2 CALM 0 0 0 0 - - 0.0
02/01:30am 4.9 3.6 4.3 96 0.3 CALM 0 0 0 0 - - 0.0
02/01:00am 5.4 4.2 4.8 96 0.3 CALM 0 6 0 3 - - 0.0
02/12:33am 5.5 4.4 4.9 96 0.3 CALM 0 0 0 0 - - 0.0
02/12:30am 5.6 4.5 5.0 96 0.3 CALM 0 0 0 0 - - 0.0
02/12:22am 5.7 4.6 5.1 96 0.3 CALM 0 0 0 0 - - 0.0
02/12:00am 5.9 4.8 5.2 95 0.3 CALM 0 0 0 0 - - 0.0
 
Date/Time
EST
Temp
°C
App
Temp
°C
Dew
Point
Rel
Hum
%
Delta-T
°C
Wind Press
QNH
hPa
Press
MSL
hPa
Rain
since 9 am
mm
Dir
 
Spd
km/h
Gust
km/h
Spd
kts
Gust
kts
01/11:30pm 6.5 5.5 5.8 95 0.3 CALM 0 0 0 0 - - 0.0
01/11:00pm 7.0 5.8 6.6 97 0.2 W 2 7 1 4 - - 0.0
01/10:30pm 6.7 5.9 6.3 97 0.2 CALM 0 0 0 0 - - 0.0
01/10:00pm 6.8 5.9 6.2 96 0.3 CALM 0 0 0 0 - - 0.0
01/09:30pm 7.3 6.5 6.7 96 0.3 CALM 0 0 0 0 - - 0.0
01/09:00pm 7.2 6.4 6.5 95 0.3 CALM 0 0 0 0 - - 0.0
01/08:30pm 7.6 6.9 6.9 95 0.3 CALM 0 0 0 0 - - 0.0

Other Formats:

Comma delimited format used in spreadsheet applications
http://www.bom.gov.au/fwo/IDN60801/IDN60801.95765.axf

JavaScript Object Notation format (JSON) in row-major order
http://www.bom.gov.au/fwo/IDN60801/IDN60801.95765.json